Time;durP1;ratioP1;P1;durP2;ratioP2;P2;SDS_P1;SDS_P2;PMS_P1;PMS_P2;Temp;Humidity;BMP_temperature;BMP_pressure;BME280_temperature;BME280_humidity;BME280_pressure;Samples;Min_cycle;Max_cycle;Signal;HPM_P1;HPM_P2
2022/07/15 00:00:01;;;;;;;0.93;0.68;;;13.30;99.90;;;;;;5003196;28;20179;-70
2022/07/15 00:02:30;;;;;;;2.67;1.05;;;13.20;99.90;;;;;;5006878;28;20408;-66
2022/07/15 00:04:57;;;;;;;5.55;1.65;;;13.20;99.90;;;;;;5007228;28;20372;-66
2022/07/15 00:07:24;;;;;;;4.57;0.80;;;13.30;99.90;;;;;;5008419;28;20111;-67
2022/07/15 00:12:37;;;;;;;1.65;0.57;;;13.60;99.90;;;;;;5008353;28;20482;-67
2022/07/15 00:15:04;;;;;;;5.47;1.23;;;14.00;99.90;;;;;;5005571;28;20132;-69
2022/07/15 00:17:31;;;;;;;4.25;0.82;;;14.20;99.90;;;;;;5005839;28;20030;-66
2022/07/15 00:19:58;;;;;;;2.20;1.02;;;14.50;99.90;;;;;;5008484;28;20536;-66
2022/07/15 00:22:25;;;;;;;6.75;2.85;;;14.60;99.90;;;;;;5007147;28;20084;-68
2022/07/15 00:24:52;;;;;;;3.58;0.80;;;14.70;99.90;;;;;;5008926;28;20038;-66
2022/07/15 00:27:19;;;;;;;3.65;0.93;;;14.80;99.90;;;;;;5005262;28;20061;-67
2022/07/15 00:29:47;;;;;;;0.88;0.60;;;14.90;99.90;;;;;;4998260;28;20049;-68
2022/07/15 00:32:14;;;;;;;1.67;0.88;;;15.00;99.90;;;;;;5002018;28;20547;-67
2022/07/15 00:34:41;;;;;;;6.20;0.80;;;15.00;99.90;;;;;;5008065;28;20041;-66
2022/07/15 00:37:09;;;;;;;2.35;0.60;;;15.10;99.90;;;;;;5006272;28;20139;-66
2022/07/15 00:39:36;;;;;;;2.17;0.75;;;15.00;99.90;;;;;;5004018;28;20216;-66
2022/07/15 00:42:03;;;;;;;1.92;0.40;;;15.00;99.90;;;;;;5006533;28;20099;-65
2022/07/15 00:44:30;;;;;;;1.20;0.50;;;15.00;99.90;;;;;;5007075;28;20108;-72
2022/07/15 00:47:00;;;;;;;1.08;0.52;;;15.00;99.90;;;;;;5019038;28;20054;-69
2022/07/15 00:49:27;;;;;;;4.10;0.85;;;15.00;99.90;;;;;;5002205;28;20050;-66
2022/07/15 00:51:55;;;;;;;0.88;0.45;;;15.00;99.90;;;;;;5007186;28;20046;-66
2022/07/15 00:54:25;;;;;;;3.35;0.70;;;15.00;99.90;;;;;;5007086;28;20048;-66
2022/07/15 00:56:55;;;;;;;0.75;0.55;;;15.00;99.90;;;;;;4995227;28;20457;-65
2022/07/15 00:59:24;;;;;;;2.38;0.68;;;15.00;99.90;;;;;;5011371;28;20045;-66
2022/07/15 01:01:53;;;;;;;0.73;0.40;;;15.00;99.90;;;;;;5006371;28;20104;-66
2022/07/15 01:04:22;;;;;;;4.63;0.57;;;15.00;99.90;;;;;;5009091;28;20042;-68
2022/07/15 01:06:49;;;;;;;3.10;2.00;;;15.00;99.90;;;;;;5009367;28;20108;-68
2022/07/15 01:09:18;;;;;;;3.47;0.93;;;15.00;99.90;;;;;;5005273;28;20078;-66
2022/07/15 01:11:47;;;;;;;0.90;0.57;;;15.00;99.90;;;;;;5008860;28;20038;-65
2022/07/15 01:14:14;;;;;;;4.32;1.65;;;15.10;99.90;;;;;;5005850;28;20042;-69
2022/07/15 01:16:42;;;;;;;2.88;0.52;;;15.10;99.90;;;;;;5005119;28;20118;-66
2022/07/15 01:19:09;;;;;;;0.88;0.65;;;15.10;99.90;;;;;;5009727;28;20046;-66
2022/07/15 01:21:41;;;;;;;1.45;0.50;;;15.10;99.90;;;;;;5010970;28;20042;-66
2022/07/15 01:24:09;;;;;;;3.60;0.98;;;15.00;99.90;;;;;;5010239;28;20448;-67
2022/07/15 01:26:45;;;;;;;0.85;0.45;;;15.00;99.90;;;;;;5008259;28;20452;-66
2022/07/15 01:29:15;;;;;;;0.30;0.30;;;15.00;99.90;;;;;;5009779;28;20096;-68
2022/07/15 01:31:42;;;;;;;0.50;0.30;;;15.00;99.90;;;;;;5003928;28;20069;-66
2022/07/15 01:34:11;;;;;;;1.42;0.30;;;14.90;99.90;;;;;;5008774;28;20058;-67
2022/07/15 01:36:37;;;;;;;1.13;0.40;;;14.90;99.90;;;;;;5005730;28;20112;-68
2022/07/15 01:39:05;;;;;;;0.65;0.20;;;14.90;99.90;;;;;;5005271;28;20065;-66
2022/07/15 01:41:53;;;;;;;2.10;0.47;;;14.90;99.90;;;;;;5006487;28;20136;-66
2022/07/15 01:44:20;;;;;;;0.50;0.28;;;14.90;99.90;;;;;;5010645;28;20434;-69
2022/07/15 01:46:47;;;;;;;1.27;0.50;;;14.80;99.90;;;;;;5001422;28;20046;-72
2022/07/15 01:49:22;;;;;;;0.32;0.30;;;14.80;99.90;;;;;;5009344;28;20392;-67
2022/07/15 01:52:09;;;;;;;1.23;0.30;;;14.80;99.90;;;;;;5008034;28;20052;-67
2022/07/15 01:54:37;;;;;;;0.70;0.50;;;14.80;99.90;;;;;;4994451;28;20054;-66
2022/07/15 01:57:04;;;;;;;0.30;0.20;;;14.80;99.90;;;;;;5009561;28;20049;-67
2022/07/15 01:59:39;;;;;;;1.55;0.35;;;14.80;99.90;;;;;;5010111;28;20364;-68
2022/07/15 02:02:06;;;;;;;0.47;0.40;;;14.80;99.90;;;;;;5004112;28;20100;-66
2022/07/15 02:04:33;;;;;;;0.98;0.28;;;14.80;99.90;;;;;;5010123;28;20046;-67
2022/07/15 02:07:00;;;;;;;1.50;0.30;;;14.70;99.90;;;;;;5005951;28;20046;-66
2022/07/15 02:09:32;;;;;;;1.42;0.20;;;14.70;99.90;;;;;;5005054;28;20077;-66
2022/07/15 02:11:59;;;;;;;0.43;0.28;;;14.70;99.90;;;;;;5006580;28;20133;-66
2022/07/15 02:14:27;;;;;;;0.43;0.20;;;14.70;99.90;;;;;;5004660;28;20431;-66
2022/07/15 02:17:04;;;;;;;0.35;0.17;;;14.70;99.90;;;;;;5003324;28;20052;-66
2022/07/15 02:19:35;;;;;;;0.10;0.10;;;14.70;99.90;;;;;;5019467;28;20046;-67
2022/07/15 02:22:01;;;;;;;2.60;0.22;;;14.70;99.90;;;;;;5009756;28;20543;-66
2022/07/15 02:24:29;;;;;;;1.88;0.28;;;14.70;99.90;;;;;;5010009;28;20143;-67
2022/07/15 02:26:56;;;;;;;0.38;0.22;;;14.70;99.90;;;;;;5008908;28;20511;-65
2022/07/15 02:29:23;;;;;;;0.10;0.10;;;14.70;99.90;;;;;;5010711;28;20042;-65
2022/07/15 02:31:50;;;;;;;0.28;0.15;;;14.70;99.90;;;;;;5004052;28;20050;-69
2022/07/15 02:34:17;;;;;;;1.65;0.35;;;14.70;99.90;;;;;;5008950;28;20053;-66
2022/07/15 02:36:44;;;;;;;0.65;0.30;;;14.70;99.90;;;;;;5005632;28;20224;-70
2022/07/15 02:39:11;;;;;;;0.30;0.30;;;14.80;99.90;;;;;;5008488;28;20392;-67
2022/07/15 02:41:40;;;;;;;0.90;0.32;;;14.70;99.90;;;;;;5009455;28;20117;-70
2022/07/15 02:44:10;;;;;;;0.22;0.10;;;14.70;99.90;;;;;;5009229;28;21099;-66
2022/07/15 02:46:39;;;;;;;0.68;0.22;;;14.70;99.90;;;;;;5004105;28;20184;-68
2022/07/15 02:49:07;;;;;;;0.38;0.20;;;14.80;99.90;;;;;;5023708;28;20045;-71
2022/07/15 02:51:34;;;;;;;0.45;0.20;;;14.80;99.90;;;;;;5008752;28;20534;-68
2022/07/15 02:54:01;;;;;;;1.08;0.93;;;14.80;99.90;;;;;;5008325;28;20049;-66
2022/07/15 02:56:30;;;;;;;1.45;0.40;;;14.80;99.90;;;;;;5007006;28;20340;-67
2022/07/15 02:58:59;;;;;;;0.40;0.10;;;14.80;99.90;;;;;;5009078;28;20387;-67
2022/07/15 03:01:26;;;;;;;2.35;0.38;;;14.90;99.90;;;;;;5005851;28;20053;-66
2022/07/15 03:03:55;;;;;;;0.20;0.20;;;14.80;99.90;;;;;;5005728;28;20073;-67
2022/07/15 03:06:24;;;;;;;0.97;0.33;;;14.90;99.90;;;;;;5008415;28;20404;-66
2022/07/15 03:08:51;;;;;;;0.25;0.22;;;14.90;99.90;;;;;;5008621;28;20077;-66
2022/07/15 03:11:19;;;;;;;2.08;0.20;;;14.80;99.90;;;;;;5008726;28;20081;-70
2022/07/15 03:13:48;;;;;;;0.20;0.20;;;14.80;99.90;;;;;;5008730;28;20345;-66
2022/07/15 03:16:15;;;;;;;1.13;0.35;;;14.80;99.90;;;;;;5005443;28;20053;-69
2022/07/15 03:18:45;;;;;;;1.75;0.77;;;14.80;99.90;;;;;;5023812;28;20145;-66
2022/07/15 03:21:13;;;;;;;0.43;0.30;;;14.80;99.90;;;;;;5007128;28;20132;-65
2022/07/15 03:23:41;;;;;;;0.25;0.22;;;14.80;99.90;;;;;;5007338;28;20046;-66
2022/07/15 03:26:08;;;;;;;0.63;0.20;;;14.80;99.90;;;;;;5005192;28;20395;-66
2022/07/15 03:28:35;;;;;;;0.80;0.25;;;14.80;99.90;;;;;;5006425;28;20164;-66
2022/07/15 03:31:03;;;;;;;1.85;0.43;;;14.80;99.90;;;;;;5004762;28;20038;-66
2022/07/15 03:33:30;;;;;;;1.55;0.40;;;14.80;99.90;;;;;;5001025;28;20081;-67
2022/07/15 03:35:57;;;;;;;0.80;0.30;;;14.80;99.90;;;;;;4999752;28;20042;-66
2022/07/15 03:38:27;;;;;;;0.45;0.20;;;14.80;99.90;;;;;;5007342;28;20042;-65
2022/07/15 03:40:54;;;;;;;0.90;0.20;;;14.80;99.90;;;;;;5003216;28;20045;-69
2022/07/15 03:43:23;;;;;;;0.22;0.17;;;14.80;99.90;;;;;;5007254;28;20341;-65
2022/07/15 03:45:52;;;;;;;0.68;0.20;;;14.80;99.90;;;;;;5006065;28;20057;-66
2022/07/15 03:48:20;;;;;;;0.80;0.28;;;14.80;99.90;;;;;;5004012;28;20133;-67
2022/07/15 03:50:47;;;;;;;3.63;0.35;;;14.80;99.90;;;;;;5005945;28;20061;-66
2022/07/15 03:53:14;;;;;;;2.00;0.38;;;14.90;99.90;;;;;;5007431;28;20137;-67
2022/07/15 03:55:42;;;;;;;0.75;0.20;;;14.90;99.90;;;;;;5006636;28;20042;-65
2022/07/15 03:58:09;;;;;;;0.65;0.30;;;15.00;99.90;;;;;;5006026;28;20317;-68
2022/07/15 04:00:36;;;;;;;0.68;0.35;;;15.00;99.90;;;;;;5020243;28;20049;-66
2022/07/15 04:03:03;;;;;;;2.13;0.70;;;15.00;99.90;;;;;;5000360;28;20052;-66
2022/07/15 04:05:30;;;;;;;0.30;0.30;;;15.00;99.90;;;;;;5006197;28;20152;-71
2022/07/15 04:07:57;;;;;;;0.57;0.20;;;15.00;99.90;;;;;;5004578;28;21308;-66
2022/07/15 04:10:26;;;;;;;0.40;0.30;;;15.00;99.90;;;;;;5002027;28;20058;-66
2022/07/15 04:12:53;;;;;;;1.75;0.28;;;15.00;99.90;;;;;;5006460;28;20061;-66
2022/07/15 04:15:20;;;;;;;0.75;0.25;;;15.00;99.90;;;;;;5002882;28;20477;-69
2022/07/15 04:17:47;;;;;;;0.45;0.22;;;15.10;99.90;;;;;;4999431;28;20054;-66
2022/07/15 04:20:18;;;;;;;0.15;0.15;;;15.10;99.90;;;;;;5001232;28;20403;-72
2022/07/15 04:22:47;;;;;;;0.93;0.80;;;15.20;99.90;;;;;;5003972;28;20061;-65
2022/07/15 04:25:18;;;;;;;1.27;0.22;;;15.10;99.90;;;;;;5005437;28;20042;-67
2022/07/15 04:27:47;;;;;;;0.85;0.60;;;15.10;99.90;;;;;;5003170;28;20054;-68
2022/07/15 04:30:15;;;;;;;0.30;0.30;;;15.10;99.90;;;;;;5005783;28;20072;-70
2022/07/15 04:32:46;;;;;;;0.82;0.30;;;15.20;99.90;;;;;;4996576;28;20471;-65
2022/07/15 04:35:14;;;;;;;1.65;0.22;;;15.20;99.90;;;;;;5003950;28;20050;-75
2022/07/15 04:37:42;;;;;;;1.05;0.22;;;15.20;99.90;;;;;;4997576;28;20038;-65
2022/07/15 04:40:10;;;;;;;0.63;0.20;;;15.10;99.90;;;;;;5006069;28;20124;-66
2022/07/15 04:42:40;;;;;;;1.92;0.17;;;15.20;99.90;;;;;;5001632;28;20046;-72
2022/07/15 04:45:10;;;;;;;0.95;0.88;;;15.10;99.90;;;;;;5006358;28;20338;-66
2022/07/15 04:47:38;;;;;;;1.10;0.20;;;15.10;99.90;;;;;;5002346;28;20057;-70
2022/07/15 04:52:54;;;;;;;0.85;0.30;;;15.20;99.90;;;;;;5005809;28;20038;-66
2022/07/15 04:55:22;;;;;;;0.68;0.28;;;15.30;99.90;;;;;;5005963;28;20065;-66
2022/07/15 04:57:58;;;;;;;2.60;0.38;;;15.30;99.90;;;;;;5002778;28;20050;-65
2022/07/15 05:00:25;;;;;;;2.05;0.50;;;15.30;99.90;;;;;;5005362;28;20050;-66
2022/07/15 05:02:53;;;;;;;0.20;0.20;;;15.30;99.90;;;;;;4998761;28;20045;-72
2022/07/15 05:05:20;;;;;;;1.75;0.28;;;15.20;99.90;;;;;;5005528;28;20069;-72
2022/07/15 05:07:48;;;;;;;0.15;0.10;;;15.20;99.90;;;;;;4999200;28;20053;-65
2022/07/15 05:10:15;;;;;;;0.68;0.30;;;15.30;99.90;;;;;;5005480;28;20050;-66
2022/07/15 05:12:50;;;;;;;0.95;0.30;;;15.30;99.90;;;;;;5004790;28;20150;-72
2022/07/15 05:15:17;;;;;;;0.10;0.10;;;15.20;99.90;;;;;;5011242;28;20053;-66
2022/07/15 05:17:44;;;;;;;0.40;0.30;;;15.20;99.90;;;;;;5002443;28;20038;-69
2022/07/15 05:20:17;;;;;;;0.43;0.30;;;15.20;99.90;;;;;;5019975;28;20530;-65
2022/07/15 05:22:44;;;;;;;1.25;0.40;;;15.20;99.90;;;;;;5000666;28;20124;-66
2022/07/15 05:25:12;;;;;;;1.08;0.38;;;15.20;99.90;;;;;;5003690;28;20498;-73
2022/07/15 05:27:40;;;;;;;1.33;1.23;;;15.20;99.90;;;;;;5014621;28;20125;-67
2022/07/15 05:30:08;;;;;;;0.95;0.95;;;15.20;99.90;;;;;;5005063;28;20041;-72
2022/07/15 05:32:36;;;;;;;1.98;0.38;;;15.20;99.90;;;;;;5001437;28;20049;-66
2022/07/15 05:35:08;;;;;;;3.13;1.08;;;15.20;99.90;;;;;;5001906;28;20518;-66
2022/07/15 05:37:39;;;;;;;0.57;0.40;;;15.10;99.90;;;;;;5004431;28;20042;-66
2022/07/15 05:40:09;;;;;;;0.50;0.50;;;15.20;99.90;;;;;;5003808;28;20038;-66
2022/07/15 05:42:44;;;;;;;0.30;0.30;;;15.20;99.90;;;;;;5000815;28;20049;-66
2022/07/15 05:45:11;;;;;;;1.45;0.20;;;15.20;99.90;;;;;;5007310;28;20046;-66
2022/07/15 05:47:48;;;;;;;1.75;0.50;;;15.20;99.90;;;;;;5005364;28;20125;-66
2022/07/15 05:50:17;;;;;;;0.95;0.30;;;15.20;99.90;;;;;;5021143;28;20046;-67
2022/07/15 05:52:45;;;;;;;0.10;0.10;;;15.10;99.90;;;;;;5005798;28;20042;-67
2022/07/15 05:55:12;;;;;;;0.82;0.30;;;15.10;99.90;;;;;;5009248;28;20052;-66
2022/07/15 05:57:39;;;;;;;1.20;0.30;;;15.00;99.90;;;;;;5002219;28;20057;-66
2022/07/15 06:00:12;;;;;;;1.00;0.30;;;14.90;99.90;;;;;;4997386;28;21176;-69
2022/07/15 06:02:40;;;;;;;1.02;0.25;;;15.00;99.90;;;;;;4998504;28;20057;-70
2022/07/15 06:05:14;;;;;;;0.45;0.45;;;15.00;99.90;;;;;;4995269;28;20524;-71
2022/07/15 06:07:46;;;;;;;1.80;0.77;;;15.00;99.90;;;;;;5005214;28;20042;-66
2022/07/15 06:10:16;;;;;;;0.73;0.30;;;15.00;99.90;;;;;;5002494;28;20071;-66
2022/07/15 06:12:43;;;;;;;8.40;1.25;;;15.00;99.90;;;;;;5002506;28;20053;-65
2022/07/15 06:15:11;;;;;;;0.30;0.30;;;15.00;99.90;;;;;;5008828;28;20538;-67
2022/07/15 06:17:38;;;;;;;0.60;0.40;;;15.00;99.90;;;;;;5006436;28;20103;-66
2022/07/15 06:20:06;;;;;;;2.35;0.40;;;15.10;99.90;;;;;;5005659;28;20046;-68
2022/07/15 06:22:39;;;;;;;0.73;0.32;;;15.00;99.90;;;;;;5007973;28;20534;-66
2022/07/15 06:25:06;;;;;;;0.20;0.20;;;14.80;99.90;;;;;;5000532;28;20081;-70
2022/07/15 06:27:34;;;;;;;0.40;0.40;;;14.80;99.90;;;;;;5001956;28;20045;-66
2022/07/15 06:30:01;;;;;;;0.30;0.10;;;14.80;99.90;;;;;;4995896;28;20065;-66
2022/07/15 06:32:28;;;;;;;0.20;0.20;;;14.90;99.90;;;;;;5002447;28;20045;-66
2022/07/15 06:34:55;;;;;;;1.17;0.40;;;14.90;99.90;;;;;;5005535;28;20045;-68
2022/07/15 06:37:22;;;;;;;0.30;0.30;;;15.00;99.90;;;;;;5006326;28;20049;-66
2022/07/15 06:39:49;;;;;;;0.28;0.20;;;15.00;99.90;;;;;;5008050;28;20133;-66
2022/07/15 06:42:17;;;;;;;0.55;0.20;;;15.00;99.90;;;;;;5002899;28;20047;-66
2022/07/15 06:44:57;;;;;;;0.30;0.20;;;15.00;99.90;;;;;;5019161;28;20035;-66
2022/07/15 06:47:25;;;;;;;2.22;0.30;;;15.20;99.90;;;;;;5006296;28;20137;-68
2022/07/15 06:49:52;;;;;;;7.93;0.40;;;15.30;99.90;;;;;;5000294;28;20062;-66
2022/07/15 06:52:19;;;;;;;1.23;0.32;;;15.30;99.90;;;;;;5001410;28;20665;-66
2022/07/15 06:54:48;;;;;;;0.82;0.20;;;15.30;99.90;;;;;;4996871;28;20149;-67
2022/07/15 06:57:16;;;;;;;2.05;1.33;;;15.20;99.90;;;;;;5015978;28;20054;-67
2022/07/15 06:59:46;;;;;;;0.55;0.40;;;15.20;99.90;;;;;;4999911;28;20045;-66
2022/07/15 07:02:13;;;;;;;0.52;0.20;;;15.10;99.90;;;;;;5004651;28;20081;-68
2022/07/15 07:04:45;;;;;;;0.35;0.20;;;15.20;99.90;;;;;;5017196;28;20137;-66
2022/07/15 07:07:13;;;;;;;1.42;0.30;;;15.10;99.90;;;;;;5004652;28;20101;-66
2022/07/15 07:09:40;;;;;;;0.73;0.20;;;15.20;99.90;;;;;;5010503;28;20076;-65
2022/07/15 07:12:07;;;;;;;0.80;0.63;;;15.10;99.90;;;;;;5006042;28;20042;-66
2022/07/15 07:14:34;;;;;;;1.02;0.40;;;15.10;99.90;;;;;;5002667;28;20034;-76
2022/07/15 07:17:01;;;;;;;0.90;0.40;;;15.10;99.90;;;;;;4999987;28;20522;-66
2022/07/15 07:19:28;;;;;;;0.35;0.28;;;15.20;99.90;;;;;;5006029;28;20076;-69
2022/07/15 07:21:55;;;;;;;0.40;0.10;;;15.30;99.90;;;;;;5004858;28;20042;-74
2022/07/15 07:24:22;;;;;;;0.30;0.17;;;15.30;99.90;;;;;;5009159;28;20096;-66
2022/07/15 07:26:50;;;;;;;1.50;0.15;;;15.30;99.90;;;;;;5009353;28;20352;-65
2022/07/15 07:29:22;;;;;;;0.90;0.30;;;15.20;99.90;;;;;;4998677;28;20108;-65
2022/07/15 07:31:50;;;;;;;0.17;0.17;;;15.30;99.90;;;;;;5009006;28;20068;-70
2022/07/15 07:34:18;;;;;;;0.50;0.30;;;15.20;99.90;;;;;;5002118;28;20082;-69
2022/07/15 07:36:46;;;;;;;0.98;0.10;;;15.10;99.90;;;;;;5006881;28;20484;-66
2022/07/15 07:39:13;;;;;;;0.30;0.22;;;15.10;99.90;;;;;;5010240;28;20037;-64
2022/07/15 07:41:41;;;;;;;0.68;0.20;;;15.20;99.90;;;;;;5001497;28;20089;-66
2022/07/15 07:44:08;;;;;;;0.55;0.32;;;15.30;99.90;;;;;;4996477;28;20269;-65
2022/07/15 07:46:35;;;;;;;0.52;0.17;;;15.30;99.90;;;;;;5001827;28;20062;-70
2022/07/15 07:49:02;;;;;;;0.25;0.20;;;15.40;99.90;;;;;;5002423;28;20053;-67
2022/07/15 07:51:49;;;;;;;0.70;0.10;;;15.50;99.90;;;;;;5004618;28;20045;-69
2022/07/15 07:54:17;;;;;;;0.52;0.10;;;15.50;99.90;;;;;;4999899;28;20046;-70
2022/07/15 07:56:45;;;;;;;0.88;0.40;;;15.50;99.90;;;;;;5007453;28;20033;-65
2022/07/15 07:59:12;;;;;;;1.38;0.30;;;15.40;99.90;;;;;;5006165;28;20057;-65
2022/07/15 08:01:39;;;;;;;0.20;0.13;;;15.40;99.90;;;;;;5007914;28;20428;-65
2022/07/15 08:04:06;;;;;;;0.63;0.38;;;15.40;99.90;;;;;;5006218;28;20853;-65
2022/07/15 08:06:34;;;;;;;0.65;0.20;;;15.40;99.90;;;;;;5005687;28;20042;-70
2022/07/15 08:09:01;;;;;;;0.63;0.17;;;15.40;99.90;;;;;;5006973;28;20440;-73
2022/07/15 08:11:28;;;;;;;0.98;0.20;;;15.40;99.90;;;;;;5007739;28;20053;-65
2022/07/15 08:13:55;;;;;;;1.08;0.20;;;15.50;99.90;;;;;;5008470;28;20034;-71
2022/07/15 08:16:22;;;;;;;0.95;0.10;;;15.50;99.90;;;;;;5008605;28;20073;-66
2022/07/15 08:18:49;;;;;;;1.67;0.20;;;15.60;99.90;;;;;;5007300;28;20120;-72
2022/07/15 08:21:17;;;;;;;0.65;0.20;;;15.50;99.90;;;;;;5004720;28;20042;-65
2022/07/15 08:23:44;;;;;;;1.05;0.28;;;15.50;99.90;;;;;;5003853;28;20060;-65
2022/07/15 08:26:18;;;;;;;0.30;0.30;;;15.50;99.90;;;;;;5002827;28;20527;-65
2022/07/15 08:28:45;;;;;;;1.05;0.68;;;15.70;99.90;;;;;;5002180;28;20391;-65
2022/07/15 08:31:32;;;;;;;2.97;0.88;;;15.80;99.90;;;;;;5005568;28;20038;-65
2022/07/15 08:34:00;;;;;;;0.60;0.30;;;15.90;99.90;;;;;;5003311;28;20129;-66
2022/07/15 08:36:27;;;;;;;0.85;0.63;;;16.00;99.90;;;;;;5002155;28;20033;-65
2022/07/15 08:38:54;;;;;;;0.50;0.30;;;16.00;99.90;;;;;;5017378;28;20092;-71
2022/07/15 08:41:21;;;;;;;0.68;0.40;;;15.90;99.90;;;;;;5008923;28;20045;-66
2022/07/15 08:43:48;;;;;;;0.13;0.13;;;15.70;99.90;;;;;;5009628;28;20038;-65
2022/07/15 08:46:16;;;;;;;1.02;0.30;;;15.60;99.90;;;;;;5003406;28;20049;-67
2022/07/15 08:48:51;;;;;;;0.95;0.43;;;15.50;99.90;;;;;;5001474;28;20439;-65
2022/07/15 08:51:23;;;;;;;0.75;0.22;;;15.60;99.90;;;;;;5002149;28;20636;-66
2022/07/15 08:53:52;;;;;;;0.17;0.17;;;15.70;99.90;;;;;;5002778;28;20521;-65
2022/07/15 08:56:20;;;;;;;0.13;0.13;;;15.70;99.90;;;;;;5006947;28;20049;-65
2022/07/15 08:58:47;;;;;;;0.35;0.10;;;15.80;99.90;;;;;;5009058;28;20037;-65
2022/07/15 09:01:30;;;;;;;0.68;0.30;;;15.80;99.90;;;;;;5003067;28;20042;-66
2022/07/15 09:03:58;;;;;;;1.77;0.30;;;15.60;99.90;;;;;;5004043;28;20089;-66
2022/07/15 09:06:51;;;;;;;1.35;0.25;;;15.60;99.90;;;;;;5004275;28;20034;-68
2022/07/15 09:09:21;;;;;;;0.15;0.15;;;15.60;99.90;;;;;;5003834;28;20145;-65
2022/07/15 09:12:08;;;;;;;1.00;0.30;;;15.70;99.90;;;;;;5008210;28;20080;-65
2022/07/15 09:14:44;;;;;;;1.77;0.55;;;15.70;99.90;;;;;;5001166;28;20480;-65
2022/07/15 09:17:12;;;;;;;1.85;0.40;;;15.60;99.90;;;;;;5008042;28;20472;-65
2022/07/15 09:20:04;;;;;;;0.50;0.50;;;15.50;99.90;;;;;;5006589;28;20125;-67
2022/07/15 09:22:47;;;;;;;1.48;0.60;;;15.50;99.90;;;;;;5011341;28;20072;-71
2022/07/15 09:25:14;;;;;;;0.45;0.20;;;15.50;99.90;;;;;;5023593;28;20764;-65
2022/07/15 09:27:43;;;;;;;3.22;0.38;;;15.50;99.90;;;;;;5005403;28;20140;-65
2022/07/15 09:36:12;;;;;;;2.10;1.50;;;15.70;99.90;;;;;;5007129;28;20054;-69
2022/07/15 09:38:50;;;;;;;2.38;2.17;;;15.80;99.90;;;;;;5012045;28;20049;-66
2022/07/15 09:41:27;;;;;;;2.13;2.03;;;16.00;99.90;;;;;;5007485;28;20120;-65
2022/07/15 09:43:58;;;;;;;0.90;0.50;;;15.90;99.90;;;;;;5005722;28;20026;-68
2022/07/15 09:46:47;;;;;;;2.65;0.70;;;15.90;99.90;;;;;;5008419;28;20131;-67
2022/07/15 09:49:24;;;;;;;0.40;0.30;;;15.60;99.90;;;;;;5010875;28;20034;-71
2022/07/15 09:51:54;;;;;;;1.08;0.40;;;15.70;99.90;;;;;;5008583;28;20046;-66
2022/07/15 09:54:33;;;;;;;1.13;0.50;;;15.90;99.90;;;;;;5010800;28;20475;-71
2022/07/15 09:57:03;;;;;;;0.77;0.40;;;16.20;99.90;;;;;;5001118;28;20660;-65
2022/07/15 09:59:30;;;;;;;0.70;0.32;;;16.30;99.90;;;;;;5010294;28;20096;-66
2022/07/15 10:02:05;;;;;;;0.20;0.20;;;16.40;99.90;;;;;;5010107;28;20088;-69
2022/07/15 10:04:32;;;;;;;0.28;0.22;;;16.40;99.90;;;;;;5009986;28;20065;-65
2022/07/15 10:06:59;;;;;;;0.50;0.40;;;16.50;99.90;;;;;;5010252;28;20049;-65
2022/07/15 10:09:47;;;;;;;1.17;0.40;;;16.60;99.90;;;;;;5009144;28;20042;-65
2022/07/15 10:12:19;;;;;;;0.60;0.40;;;16.70;99.90;;;;;;5013172;28;20121;-65
2022/07/15 10:15:15;;;;;;;0.80;0.30;;;16.80;99.90;;;;;;5012408;28;20120;-65
2022/07/15 10:17:42;;;;;;;1.80;0.50;;;16.60;99.90;;;;;;5010991;28;20093;-65
2022/07/15 10:20:15;;;;;;;1.17;0.63;;;16.40;99.90;;;;;;5010656;28;20058;-66
2022/07/15 10:22:53;;;;;;;0.65;0.22;;;16.40;99.90;;;;;;5010781;28;20038;-65
2022/07/15 10:25:52;;;;;;;1.27;0.52;;;16.30;99.90;;;;;;5010665;28;20045;-65
2022/07/15 10:28:56;;;;;;;0.65;0.40;;;16.40;99.90;;;;;;5008380;28;20372;-70
2022/07/15 10:31:28;;;;;;;1.08;0.50;;;16.50;99.90;;;;;;4987271;28;20057;-65
2022/07/15 10:34:04;;;;;;;1.85;0.88;;;16.50;99.90;;;;;;5011976;28;20048;-67
2022/07/15 10:36:56;;;;;;;0.80;0.45;;;16.40;99.90;;;;;;5007509;28;20426;-65
2022/07/15 10:39:26;;;;;;;2.05;0.50;;;16.60;99.90;;;;;;5005196;28;20530;-65
2022/07/15 10:41:59;;;;;;;1.90;0.38;;;16.60;99.90;;;;;;5011576;28;20037;-65
2022/07/15 10:44:34;;;;;;;2.63;0.50;;;16.50;99.90;;;;;;5011991;28;20034;-70
2022/07/15 10:47:13;;;;;;;1.55;0.43;;;16.60;99.90;;;;;;5012203;28;20045;-67
2022/07/15 10:49:45;;;;;;;3.35;0.70;;;16.50;99.90;;;;;;5009886;28;20046;-67
2022/07/15 10:52:19;;;;;;;2.33;0.70;;;16.70;99.90;;;;;;5009750;28;20036;-65
2022/07/15 10:55:07;;;;;;;3.80;0.57;;;16.90;99.90;;;;;;5011465;28;20127;-65
2022/07/15 10:57:42;;;;;;;1.27;0.40;;;17.00;99.90;;;;;;5004010;28;20148;-65
2022/07/15 11:00:22;;;;;;;3.80;0.52;;;17.20;99.90;;;;;;5006364;28;20131;-65
2022/07/15 11:03:08;;;;;;;1.17;0.40;;;17.40;99.90;;;;;;5012627;28;20049;-66
2022/07/15 11:05:45;;;;;;;0.85;0.63;;;17.10;99.90;;;;;;5008016;28;20046;-67
2022/07/15 11:08:30;;;;;;;1.02;1.02;;;17.10;99.90;;;;;;5007263;28;20070;-65
2022/07/15 11:11:18;;;;;;;1.10;1.00;;;17.20;99.90;;;;;;5010910;28;20096;-65
2022/07/15 11:13:49;;;;;;;2.47;1.52;;;17.10;99.90;;;;;;5011657;28;20114;-67
2022/07/15 11:16:19;;;;;;;1.55;1.33;;;17.20;99.90;;;;;;5012143;28;20147;-65
2022/07/15 11:18:53;;;;;;;1.45;0.75;;;17.10;99.90;;;;;;5012590;28;20761;-64
2022/07/15 11:21:21;;;;;;;2.05;1.20;;;17.00;99.90;;;;;;5009325;28;20079;-67
2022/07/15 11:23:50;;;;;;;1.17;0.50;;;17.10;99.90;;;;;;5010602;28;20092;-73
2022/07/15 11:26:17;;;;;;;3.90;1.02;;;17.10;99.90;;;;;;5009507;28;20050;-64
2022/07/15 11:28:55;;;;;;;1.63;0.70;;;17.10;99.90;;;;;;5006555;28;20120;-68
2022/07/15 11:31:23;;;;;;;0.85;0.43;;;17.10;99.90;;;;;;5005331;28;20034;-66
2022/07/15 11:33:56;;;;;;;1.83;1.20;;;17.20;99.90;;;;;;5012076;28;20045;-67
2022/07/15 11:36:24;;;;;;;1.33;0.40;;;17.20;99.90;;;;;;5002330;28;20038;-71
2022/07/15 11:38:51;;;;;;;2.70;1.40;;;17.10;99.90;;;;;;5008696;28;20042;-67
2022/07/15 11:44:29;;;;;;;1.48;1.10;;;17.00;99.90;;;;;;5007077;28;20136;-64
2022/07/15 11:47:00;;;;;;;0.85;0.38;;;17.00;99.90;;;;;;5009202;28;20521;-65
2022/07/15 11:49:31;;;;;;;2.33;1.02;;;17.20;99.90;;;;;;5006148;28;20487;-66
2022/07/15 11:51:59;;;;;;;0.73;0.60;;;17.30;99.90;;;;;;5007919;28;20415;-65
2022/07/15 11:54:27;;;;;;;1.10;0.30;;;17.40;99.90;;;;;;5006168;28;20057;-65
2022/07/15 11:57:02;;;;;;;2.28;0.65;;;17.40;99.90;;;;;;5007382;28;20026;-65
2022/07/15 11:59:29;;;;;;;1.40;0.52;;;17.40;99.90;;;;;;5003889;28;21449;-70
2022/07/15 12:02:05;;;;;;;1.33;0.40;;;17.40;99.70;;;;;;5002757;28;20089;-65
2022/07/15 12:04:32;;;;;;;1.80;1.00;;;17.50;99.90;;;;;;5008549;28;20558;-65
2022/07/15 12:06:59;;;;;;;2.90;1.27;;;17.70;99.90;;;;;;5005083;28;20052;-71
2022/07/15 12:09:37;;;;;;;4.28;1.20;;;17.80;99.80;;;;;;5000727;28;20132;-68
2022/07/15 12:12:04;;;;;;;3.00;0.82;;;17.70;99.40;;;;;;5005608;28;20135;-66
2022/07/15 12:14:31;;;;;;;0.88;0.80;;;17.50;99.70;;;;;;5003896;28;20050;-64
2022/07/15 12:16:59;;;;;;;2.28;0.88;;;17.40;99.60;;;;;;5004687;28;20038;-65
2022/07/15 12:19:29;;;;;;;2.47;1.17;;;17.30;99.70;;;;;;4998570;28;20096;-73
2022/07/15 12:22:00;;;;;;;4.00;0.90;;;17.30;99.90;;;;;;5001590;28;20057;-65
2022/07/15 12:24:42;;;;;;;2.60;0.40;;;17.40;99.90;;;;;;4998431;28;20488;-66
2022/07/15 12:27:09;;;;;;;1.05;0.28;;;17.60;99.90;;;;;;5008293;28;20050;-65
2022/07/15 12:29:37;;;;;;;0.90;0.75;;;18.00;99.90;;;;;;5007408;28;20116;-64
2022/07/15 12:32:25;;;;;;;0.85;0.73;;;18.10;99.90;;;;;;5003318;28;20483;-65
2022/07/15 12:35:00;;;;;;;1.33;0.57;;;18.10;99.60;;;;;;5005934;28;20108;-65
2022/07/15 12:37:30;;;;;;;2.50;1.45;;;17.90;98.70;;;;;;5000191;28;20160;-66
2022/07/15 12:39:58;;;;;;;1.85;0.40;;;17.60;99.30;;;;;;4999798;28;20044;-65
2022/07/15 12:42:30;;;;;;;2.50;0.70;;;17.80;99.90;;;;;;5002327;28;20042;-68
2022/07/15 12:45:06;;;;;;;1.20;0.30;;;18.10;99.90;;;;;;5001275;28;20049;-64
2022/07/15 12:48:03;;;;;;;1.55;0.45;;;18.10;98.00;;;;;;5001448;28;20030;-65
2022/07/15 12:50:31;;;;;;;;;;;18.10;98.70;;;;;;5001801;28;20092;-65
2022/07/15 12:52:58;;;;;;;2.10;0.98;;;18.10;98.90;;;;;;5002226;28;20437;-65
2022/07/15 12:55:28;;;;;;;1.40;1.30;;;18.30;98.90;;;;;;5003158;28;20037;-69
2022/07/15 12:58:07;;;;;;;1.55;0.40;;;18.50;98.80;;;;;;5007847;28;20637;-69
2022/07/15 13:00:35;;;;;;;3.53;0.93;;;18.60;98.20;;;;;;5008969;28;20069;-64
2022/07/15 13:03:05;;;;;;;1.48;0.65;;;18.70;99.00;;;;;;5006635;28;20074;-65
2022/07/15 13:05:38;;;;;;;2.60;0.70;;;18.90;98.60;;;;;;5002133;28;20037;-70
2022/07/15 13:08:09;;;;;;;2.65;0.50;;;18.70;97.70;;;;;;5004562;28;20478;-68
2022/07/15 13:10:37;;;;;;;2.22;1.45;;;18.40;97.70;;;;;;5001682;28;20037;-66
2022/07/15 13:13:05;;;;;;;1.40;1.30;;;18.20;97.50;;;;;;5003291;28;20042;-65
2022/07/15 13:15:32;;;;;;;1.08;0.40;;;18.40;98.20;;;;;;5005327;28;20420;-65
2022/07/15 13:17:59;;;;;;;2.08;1.42;;;18.60;97.60;;;;;;5007535;28;20048;-65